createdAt,value
2023-12-05T00:00:53.490Z,97931.31
2023-12-05T00:03:22.823Z,97928.56
2023-12-05T00:05:52.258Z,97924.69
2023-12-05T00:08:21.364Z,97929.50
2023-12-05T00:10:50.682Z,97921.00
2023-12-05T00:13:19.830Z,97919.63
2023-12-05T00:15:49.071Z,97926.28
2023-12-05T00:18:19.893Z,97920.09
2023-12-05T00:20:49.104Z,97911.84
2023-12-05T00:23:18.471Z,97906.44
2023-12-05T00:25:47.640Z,97906.78
2023-12-05T00:28:16.813Z,97901.72
2023-12-05T00:30:45.983Z,97902.41
2023-12-05T00:33:17.787Z,97902.41
2023-12-05T00:35:48.745Z,97898.50
2023-12-05T00:38:17.938Z,97896.91
2023-12-05T00:40:47.160Z,97891.41
2023-12-05T00:43:16.345Z,97898.50
2023-12-05T00:45:45.487Z,97897.81
2023-12-05T00:48:14.728Z,97898.63
2023-12-05T00:50:46.336Z,97893.69
2023-12-05T00:53:17.215Z,97899.88
2023-12-05T00:55:46.346Z,97898.19
2023-12-05T00:58:15.783Z,97894.63
2023-12-05T01:00:44.986Z,97899.44
2023-12-05T01:03:15.232Z,97907.00
2023-12-05T01:05:45.981Z,97910.22
2023-12-05T01:08:16.632Z,97909.28
2023-12-05T01:10:45.772Z,97913.88
2023-12-05T01:13:14.958Z,97904.00
2023-12-05T01:15:44.176Z,97904.25
2023-12-05T01:18:14.138Z,97908.69
2023-12-05T01:20:43.408Z,97901.38
2023-12-05T01:23:12.745Z,97902.88
2023-12-05T01:25:43.531Z,97902.41
2023-12-05T01:28:12.820Z,97902.97
2023-12-05T01:30:42.956Z,97894.59
2023-12-05T01:33:12.229Z,97896.22
2023-12-05T01:35:41.407Z,97888.88
2023-12-05T01:38:10.627Z,97891.41
2023-12-05T01:40:39.762Z,97894.50
2023-12-05T01:43:10.254Z,97890.69
2023-12-05T01:45:39.767Z,97887.47
2023-12-05T01:48:10.058Z,97884.06
2023-12-05T01:50:39.829Z,97864.75
2023-12-05T01:53:09.680Z,97867.84
2023-12-05T01:55:39.966Z,97860.13
2023-12-05T01:58:11.123Z,97854.16
2023-12-05T02:00:41.483Z,97863.16
2023-12-05T02:03:11.328Z,97854.31
2023-12-05T02:05:40.750Z,97852.94
2023-12-05T02:08:13.470Z,97847.78
2023-12-05T02:10:42.618Z,97845.50
2023-12-05T02:13:13.243Z,97836.91
2023-12-05T02:15:42.604Z,97834.59
2023-12-05T02:18:20.210Z,97837.47
2023-12-05T02:20:54.622Z,97829.38
2023-12-05T02:23:56.823Z,97833.94
2023-12-05T02:26:43.887Z,97820.41
2023-12-05T02:29:14.420Z,97824.97
2023-12-05T02:31:43.587Z,97821.75
2023-12-05T02:34:13.015Z,97823.25
2023-12-05T02:36:53.615Z,97822.31
2023-12-05T02:39:31.697Z,97817.19
2023-12-05T02:42:04.374Z,97824.41
2023-12-05T02:44:42.588Z,97820.25
2023-12-05T02:47:15.617Z,97817.34
2023-12-05T02:49:44.822Z,97815.75
2023-12-05T02:52:14.039Z,97824.22
2023-12-05T02:54:43.184Z,97831.19
2023-12-05T02:57:13.064Z,97825.25
2023-12-05T02:59:43.746Z,97818.28
2023-12-05T03:02:13.012Z,97815.06
2023-12-05T03:04:44.849Z,97801.66
2023-12-05T03:07:14.033Z,97807.63
2023-12-05T03:09:43.326Z,97809.56
2023-12-05T03:12:12.489Z,97806.75
2023-12-05T03:14:43.087Z,97806.19
2023-12-05T03:17:12.373Z,97808.94
2023-12-05T03:19:41.823Z,97808.72
2023-12-05T03:22:11.632Z,97813.53
2023-12-05T03:24:40.838Z,97813.09
2023-12-05T03:27:10.089Z,97818.75
2023-12-05T03:29:39.300Z,97817.94
2023-12-05T03:32:10.192Z,97818.59
2023-12-05T03:34:39.574Z,97814.72
2023-12-05T03:37:08.986Z,97807.34
2023-12-05T03:39:38.210Z,97808.03
2023-12-05T03:42:07.774Z,97802.56
2023-12-05T03:44:36.939Z,97805.53
2023-12-05T03:47:06.297Z,97805.75
2023-12-05T03:49:37.177Z,97800.72
2023-12-05T03:52:07.618Z,97791.31
2023-12-05T03:54:36.884Z,97801.19
2023-12-05T03:57:06.626Z,97798.88
2023-12-05T03:59:35.797Z,97804.38
2023-12-05T04:02:05.442Z,97797.75
2023-12-05T04:04:36.912Z,97795.94
2023-12-05T04:07:07.138Z,97801.06
2023-12-05T04:09:36.328Z,97793.81
2023-12-05T04:12:06.472Z,97781.91
2023-12-05T04:14:35.706Z,97783.94
2023-12-05T04:17:05.162Z,97788.50
2023-12-05T04:19:34.397Z,97780.59
2023-12-05T04:22:05.425Z,97795.50
2023-12-05T04:24:35.271Z,97787.59
2023-12-05T04:27:04.888Z,97791.38
2023-12-05T04:29:33.999Z,97786.66
2023-12-05T04:32:03.654Z,97783.47
2023-12-05T04:34:33.014Z,97785.75
2023-12-05T04:37:02.209Z,97792.84
2023-12-05T04:39:32.733Z,97796.28
2023-12-05T04:42:02.018Z,97795.47
2023-12-05T04:44:31.234Z,97784.81
2023-12-05T04:47:01.117Z,97786.41
2023-12-05T04:49:30.414Z,97793.53
2023-12-05T04:52:00.306Z,97796.75
2023-12-05T04:54:29.979Z,97796.28
2023-12-05T04:57:00.643Z,97800.63
2023-12-05T04:59:29.777Z,97799.03
2023-12-05T05:01:59.169Z,97795.81
2023-12-05T05:04:28.479Z,97796.28
2023-12-05T05:06:57.736Z,97803.84
2023-12-05T05:09:27.015Z,97804.06
2023-12-05T05:11:56.275Z,97793.53
2023-12-05T05:14:26.781Z,97787.38
2023-12-05T05:16:55.973Z,97792.28
2023-12-05T05:19:25.782Z,97792.66
2023-12-05T05:21:55.140Z,97800.00
2023-12-05T05:24:24.343Z,97801.03
2023-12-05T05:26:53.524Z,97797.34
2023-12-05T05:29:22.690Z,97798.84
2023-12-05T05:31:53.162Z,97801.91
2023-12-05T05:34:22.539Z,97805.00
2023-12-05T05:36:52.382Z,97816.69
2023-12-05T05:39:22.275Z,97813.94
2023-12-05T05:41:51.771Z,97827.13
2023-12-05T05:44:20.979Z,97834.09
2023-12-05T05:46:50.120Z,97829.19
2023-12-05T05:49:20.703Z,97828.97
2023-12-05T05:51:49.939Z,97834.19
2023-12-05T05:54:19.227Z,97833.25
2023-12-05T05:56:48.760Z,97831.34
2023-12-05T05:59:17.899Z,97837.00
2023-12-05T06:01:49.433Z,97832.53
2023-12-05T06:04:18.602Z,97842.09
2023-12-05T06:06:49.158Z,97844.56
2023-12-05T06:09:18.328Z,97857.50
2023-12-05T06:11:47.707Z,97841.81
2023-12-05T06:14:16.808Z,97838.88
2023-12-05T06:16:45.922Z,97845.97
2023-12-05T06:19:15.959Z,97845.47
2023-12-05T06:21:45.316Z,97845.22
2023-12-05T06:24:16.140Z,97837.25
2023-12-05T06:26:45.281Z,97837.41
2023-12-05T06:29:14.491Z,97850.84
2023-12-05T06:31:43.621Z,97846.47
2023-12-05T06:34:12.953Z,97839.13
2023-12-05T06:36:42.177Z,97826.72
2023-12-05T06:39:11.866Z,97825.91
2023-12-05T06:41:42.362Z,97831.06
2023-12-05T06:44:11.546Z,97823.97
2023-12-05T06:46:40.740Z,97827.84
2023-12-05T06:49:10.100Z,97839.53
2023-12-05T06:51:39.393Z,97850.38
2023-12-05T06:54:08.543Z,97848.78
2023-12-05T06:56:37.653Z,97846.78
2023-12-05T06:59:08.167Z,97833.72
2023-12-05T07:01:37.322Z,97833.97
2023-12-05T07:04:06.687Z,97835.13
2023-12-05T07:06:36.104Z,97825.06
2023-12-05T07:09:06.807Z,97830.66
2023-12-05T07:11:36.257Z,97834.03
2023-12-05T07:14:05.391Z,97835.63
2023-12-05T07:16:37.763Z,97837.72
2023-12-05T07:19:08.176Z,97851.91
2023-12-05T07:21:40.165Z,97854.47
2023-12-05T07:24:09.609Z,97849.44
2023-12-05T07:26:38.873Z,97852.63
2023-12-05T07:29:08.057Z,97861.13
2023-12-05T07:31:38.740Z,97847.91
2023-12-05T07:34:08.021Z,97846.91
2023-12-05T07:36:42.358Z,97839.47
2023-12-05T07:39:14.065Z,97833.31
2023-12-05T07:41:43.371Z,97834.69
2023-12-05T07:44:13.228Z,97849.59
2023-12-05T07:46:44.913Z,97840.00
2023-12-05T07:49:14.312Z,97849.84
2023-12-05T07:51:43.524Z,97853.41
2023-12-05T07:54:12.652Z,97853.50
2023-12-05T07:56:41.809Z,97865.56
2023-12-05T07:59:11.465Z,97866.16
2023-12-05T08:01:43.551Z,97859.13
2023-12-05T08:04:14.576Z,97856.19
2023-12-05T08:06:43.786Z,97872.19
2023-12-05T08:09:13.241Z,97865.16
2023-12-05T08:11:42.545Z,97864.91
2023-12-05T08:14:11.629Z,97877.06
2023-12-05T08:16:43.156Z,97867.88
2023-12-05T08:19:14.239Z,97865.31
2023-12-05T08:21:43.756Z,97871.84
2023-12-05T08:24:14.056Z,97872.63
2023-12-05T08:26:43.402Z,97873.78
2023-12-05T08:29:14.072Z,97869.34
2023-12-05T08:31:43.426Z,97873.50
2023-12-05T08:34:16.833Z,97883.28
2023-12-05T08:36:46.603Z,97883.28
2023-12-05T08:39:15.765Z,97876.16
2023-12-05T08:41:45.307Z,97880.22
2023-12-05T08:44:14.675Z,97884.34
2023-12-05T08:46:44.464Z,97888.91
2023-12-05T08:49:15.367Z,97895.16
2023-12-05T08:51:45.185Z,97890.63
2023-12-05T08:54:14.468Z,97902.41
2023-12-05T08:56:43.730Z,97905.47
2023-12-05T08:59:12.910Z,97902.06
2023-12-05T09:01:42.532Z,97892.69
2023-12-05T09:04:11.842Z,97889.72
2023-12-05T09:06:43.530Z,97882.09
2023-12-05T09:09:12.779Z,97888.50
2023-12-05T09:11:42.013Z,97890.72
2023-12-05T09:14:11.183Z,97892.88
2023-12-05T09:16:40.592Z,97899.16
2023-12-05T09:19:09.855Z,97902.34
2023-12-05T09:21:39.302Z,97904.56
2023-12-05T09:24:11.569Z,97902.66
2023-12-05T09:26:40.864Z,97903.09
2023-12-05T09:29:09.954Z,97897.41
2023-12-05T09:31:39.715Z,97898.72
2023-12-05T09:34:08.920Z,97896.75
2023-12-05T09:36:38.354Z,97895.53
2023-12-05T09:39:07.609Z,97894.78
2023-12-05T09:41:49.237Z,97892.53
2023-12-05T09:44:22.664Z,97887.06
2023-12-05T09:46:58.113Z,97879.50
2023-12-05T09:49:29.960Z,97881.22
2023-12-05T09:52:02.252Z,97874.47
2023-12-05T09:54:34.540Z,97887.19
2023-12-05T09:57:06.610Z,97872.50
2023-12-05T09:59:36.236Z,97875.13
2023-12-05T10:02:07.623Z,97862.81
2023-12-05T10:04:45.046Z,97864.84
2023-12-05T10:07:15.591Z,97865.66
2023-12-05T10:09:46.309Z,97869.50
2023-12-05T10:12:18.041Z,97859.38
2023-12-05T10:14:47.569Z,97846.38
2023-12-05T10:17:16.774Z,97861.03
2023-12-05T10:19:46.506Z,97860.78
2023-12-05T10:22:16.498Z,97858.81
2023-12-05T10:24:46.893Z,97856.66
2023-12-05T10:27:18.362Z,97856.28
2023-12-05T10:29:47.784Z,97858.09
2023-12-05T10:32:16.999Z,97849.03
2023-12-05T10:34:50.292Z,97855.81
2023-12-05T10:37:23.808Z,97860.63
2023-12-05T10:39:54.302Z,97862.53
2023-12-05T10:42:29.089Z,97860.66
2023-12-05T10:44:59.145Z,97856.34
2023-12-05T10:47:29.628Z,97865.53
2023-12-05T10:49:59.912Z,97861.06
2023-12-05T10:52:32.780Z,97869.44
2023-12-05T10:55:02.071Z,97870.72
2023-12-05T10:57:35.988Z,97866.06
2023-12-05T11:00:08.769Z,97871.38
2023-12-05T11:02:40.194Z,97863.34
2023-12-05T11:05:12.169Z,97866.72
2023-12-05T11:07:42.613Z,97868.59
2023-12-05T11:10:12.595Z,97853.66
2023-12-05T11:12:43.652Z,97856.00
2023-12-05T11:15:16.733Z,97855.13
2023-12-05T11:17:52.517Z,97853.47
2023-12-05T11:20:40.010Z,97848.56
2023-12-05T11:23:47.365Z,97840.53
2023-12-05T11:26:45.344Z,97846.09
2023-12-05T11:29:54.686Z,97843.66
2023-12-05T11:32:42.016Z,97852.84
2023-12-05T11:35:18.176Z,97850.97
2023-12-05T11:38:08.520Z,97849.47
2023-12-05T11:40:37.842Z,97848.06
2023-12-05T11:43:09.087Z,97848.22
2023-12-05T11:45:42.006Z,97848.31
2023-12-05T11:48:14.944Z,97840.72
2023-12-05T11:50:46.297Z,97842.75
2023-12-05T11:53:20.736Z,97850.72
2023-12-05T11:55:51.023Z,97843.44
2023-12-05T11:58:38.115Z,97850.56
2023-12-05T12:01:20.414Z,97843.63
2023-12-05T12:03:53.814Z,97845.63
2023-12-05T12:06:24.882Z,97841.63
2023-12-05T12:08:57.747Z,97850.72
2023-12-05T12:11:27.061Z,97852.28
2023-12-05T12:13:56.269Z,97846.66
2023-12-05T12:16:28.669Z,97842.34
2023-12-05T12:19:04.351Z,97845.38
2023-12-05T12:21:34.232Z,97838.13
2023-12-05T12:24:03.962Z,97837.97
2023-12-05T12:26:34.724Z,97835.28
2023-12-05T12:29:08.639Z,97838.72
2023-12-05T12:31:39.236Z,97829.19
2023-12-05T12:34:09.407Z,97820.44
2023-12-05T12:36:39.561Z,97817.94
2023-12-05T12:39:09.381Z,97820.94
2023-12-05T12:41:40.315Z,97824.63
2023-12-05T12:44:10.919Z,97825.97
2023-12-05T12:46:43.223Z,97826.13
2023-12-05T12:49:12.931Z,97815.28
2023-12-05T12:51:43.151Z,97812.03
2023-12-05T12:54:12.506Z,97808.09
2023-12-05T12:56:42.976Z,97819.28
2023-12-05T12:59:13.557Z,97819.38
2023-12-05T13:01:46.049Z,97821.88
2023-12-05T13:04:16.794Z,97823.47
2023-12-05T13:06:48.195Z,97827.44
2023-12-05T13:09:19.093Z,97816.66
2023-12-05T13:11:49.789Z,97828.50
2023-12-05T13:14:20.825Z,97824.75
2023-12-05T13:16:51.468Z,97819.44
2023-12-05T13:19:25.547Z,97817.66
2023-12-05T13:21:55.020Z,97821.94
2023-12-05T13:24:24.276Z,97812.25
2023-12-05T13:26:54.032Z,97817.63
2023-12-05T13:29:23.337Z,97815.50
2023-12-05T13:31:53.895Z,97821.00
2023-12-05T13:34:24.279Z,97817.25
2023-12-05T13:36:53.782Z,97810.84
2023-12-05T13:39:23.016Z,97810.38
2023-12-05T13:41:52.504Z,97820.22
2023-12-05T13:44:21.642Z,97820.16
2023-12-05T13:46:50.773Z,97816.97
2023-12-05T13:49:21.431Z,97824.84
2023-12-05T13:51:50.598Z,97818.44
2023-12-05T13:54:19.980Z,97825.59
2023-12-05T13:56:49.135Z,97826.28
2023-12-05T13:59:18.612Z,97832.22
2023-12-05T14:01:48.369Z,97836.91
2023-12-05T14:04:20.275Z,97829.34
2023-12-05T14:06:49.584Z,97825.28
2023-12-05T14:09:19.054Z,97825.97
2023-12-05T14:11:50.504Z,97827.53
2023-12-05T14:14:19.717Z,97821.97
2023-12-05T14:16:48.897Z,97829.06
2023-12-05T14:19:18.750Z,97820.38
2023-12-05T14:21:49.976Z,97825.59
2023-12-05T14:24:19.149Z,97822.06
2023-12-05T14:26:48.336Z,97828.34
2023-12-05T14:29:17.535Z,97830.25
2023-12-05T14:31:46.688Z,97840.41
2023-12-05T14:34:15.887Z,97828.28
2023-12-05T14:36:45.184Z,97827.34
2023-12-05T14:39:18.398Z,97827.56
2023-12-05T14:41:49.782Z,97833.75
2023-12-05T14:44:19.108Z,97828.88
2023-12-05T14:46:48.300Z,97837.81
2023-12-05T14:49:17.918Z,97836.50
2023-12-05T14:51:47.100Z,97831.63
2023-12-05T14:54:17.625Z,97837.00
2023-12-05T14:56:46.742Z,97829.09
2023-12-05T14:59:17.192Z,97829.09
2023-12-05T15:01:46.430Z,97840.09
2023-12-05T15:04:15.671Z,97839.13
2023-12-05T15:06:44.906Z,97844.69
2023-12-05T15:09:14.052Z,97836.66
2023-12-05T15:11:44.609Z,97832.59
2023-12-05T15:14:13.825Z,97827.72
2023-12-05T15:16:44.384Z,97830.78
2023-12-05T15:19:15.363Z,97828.38
2023-12-05T15:21:45.235Z,97830.69
2023-12-05T15:24:14.599Z,97829.09
2023-12-05T15:26:47.766Z,97834.63
2023-12-05T15:29:22.285Z,97838.56
2023-12-05T15:31:54.759Z,97843.38
2023-12-05T15:34:24.054Z,97847.44
2023-12-05T15:36:53.221Z,97848.16
2023-12-05T15:39:22.418Z,97843.81
2023-12-05T15:41:53.020Z,97837.91
2023-12-05T15:44:22.249Z,97835.94
2023-12-05T15:46:51.368Z,97843.28
2023-12-05T15:49:20.724Z,97839.28
2023-12-05T15:51:49.936Z,97843.94
2023-12-05T15:54:19.325Z,97842.34
2023-12-05T15:56:48.477Z,97840.38
2023-12-05T15:59:21.039Z,97844.94
2023-12-05T16:01:50.665Z,97835.78
2023-12-05T16:04:20.257Z,97839.69
2023-12-05T16:06:49.651Z,97840.84
2023-12-05T16:09:21.862Z,97844.34
2023-12-05T16:11:52.863Z,97844.34
2023-12-05T16:14:25.688Z,97849.97
2023-12-05T16:16:55.553Z,97846.91
2023-12-05T16:19:25.464Z,97844.50
2023-12-05T16:21:55.595Z,97847.00
2023-12-05T16:24:25.201Z,97849.03
2023-12-05T16:26:54.933Z,97848.25
2023-12-05T16:29:26.833Z,97841.03
2023-12-05T16:31:56.344Z,97851.81
2023-12-05T16:34:25.704Z,97850.94
2023-12-05T16:36:56.124Z,97850.03
2023-12-05T16:39:25.474Z,97852.81
2023-12-05T16:41:55.253Z,97851.91
2023-12-05T16:44:26.663Z,97849.88
2023-12-05T16:46:55.831Z,97856.34
2023-12-05T16:49:25.104Z,97857.84
2023-12-05T16:51:54.473Z,97856.69
2023-12-05T16:54:23.977Z,97861.50
2023-12-05T16:56:53.734Z,97871.84
2023-12-05T16:59:28.281Z,97877.38
2023-12-05T17:02:02.907Z,97880.59
2023-12-05T17:04:33.518Z,97875.06
2023-12-05T17:07:02.981Z,97887.28
2023-12-05T17:09:32.844Z,97893.25
2023-12-05T17:12:03.045Z,97885.78
2023-12-05T17:14:33.245Z,97880.25
2023-12-05T17:17:05.576Z,97883.00
2023-12-05T17:19:35.617Z,97880.59
2023-12-05T17:22:05.344Z,97882.19
2023-12-05T17:24:34.632Z,97884.56
2023-12-05T17:27:04.705Z,97901.97
2023-12-05T17:29:34.561Z,97889.31
2023-12-05T17:32:06.778Z,97886.19
2023-12-05T17:34:36.524Z,97889.75
2023-12-05T17:37:06.156Z,97895.22
2023-12-05T17:39:35.506Z,97886.84
2023-12-05T17:42:05.177Z,97889.16
2023-12-05T17:44:34.337Z,97888.28
2023-12-05T17:47:05.292Z,97884.25
2023-12-05T17:49:34.450Z,97878.72
2023-12-05T17:52:03.830Z,97879.53
2023-12-05T17:54:33.213Z,97887.47
2023-12-05T17:57:02.398Z,97892.19
2023-12-05T17:59:32.012Z,97888.28
2023-12-05T18:02:01.274Z,97882.31
2023-12-05T18:04:32.121Z,97887.81
2023-12-05T18:07:50.235Z,97891.47
2023-12-05T18:09:52.230Z,97896.56
2023-12-05T18:12:22.793Z,97893.09
2023-12-05T18:14:52.045Z,97898.63
2023-12-05T18:17:21.971Z,97902.53
2023-12-05T18:19:53.479Z,97905.03
2023-12-05T18:22:22.826Z,97907.44
2023-12-05T18:24:52.056Z,97911.00
2023-12-05T18:27:21.539Z,97918.16
2023-12-05T18:29:52.068Z,97916.19
2023-12-05T18:32:22.138Z,97907.09
2023-12-05T18:34:54.068Z,97914.56
2023-12-05T18:37:23.693Z,97928.00
2023-12-05T18:39:53.373Z,97923.38
2023-12-05T18:42:22.829Z,97924.03
2023-12-05T18:44:51.979Z,97922.78
2023-12-05T18:47:21.566Z,97926.25
2023-12-05T18:49:54.279Z,97926.63
2023-12-05T18:52:23.465Z,97932.50
2023-12-05T18:54:53.295Z,97934.13
2023-12-05T18:57:22.429Z,97923.94
2023-12-05T18:59:51.788Z,97938.94
2023-12-05T19:02:21.045Z,97938.94
2023-12-05T19:04:52.582Z,97938.75
2023-12-05T19:07:22.526Z,97934.66
2023-12-05T19:09:52.647Z,97938.66
2023-12-05T19:12:21.859Z,97942.66
2023-12-05T19:14:51.105Z,97946.50
2023-12-05T19:17:20.767Z,97944.19
2023-12-05T19:19:50.194Z,97939.09
2023-12-05T19:22:20.859Z,97933.22
2023-12-05T19:24:50.076Z,97940.53
2023-12-05T19:27:19.642Z,97934.22
2023-12-05T19:29:49.645Z,97934.28
2023-12-05T19:32:18.778Z,97941.44
2023-12-05T19:34:48.350Z,97939.81
2023-12-05T19:37:20.980Z,97938.66
2023-12-05T19:39:50.422Z,97940.91
2023-12-05T19:42:21.202Z,97947.66
2023-12-05T19:44:50.410Z,97941.44
2023-12-05T19:47:24.089Z,97944.59
2023-12-05T19:49:54.159Z,97939.88
2023-12-05T19:52:24.775Z,97952.63
2023-12-05T19:54:54.355Z,97949.16
2023-12-05T19:57:23.640Z,97946.66
2023-12-05T19:59:52.752Z,97942.28
2023-12-05T20:02:22.081Z,97947.03
2023-12-05T20:04:51.378Z,97951.03
2023-12-05T20:07:21.265Z,97945.06
2023-12-05T20:09:56.927Z,97943.03
2023-12-05T20:12:26.537Z,97945.34
2023-12-05T20:14:59.161Z,97946.06
2023-12-05T20:17:29.683Z,97945.34
2023-12-05T20:19:59.616Z,97946.97
2023-12-05T20:22:29.906Z,97943.03
2023-12-05T20:25:00.880Z,97949.28
2023-12-05T20:27:31.195Z,97948.03
2023-12-05T20:30:00.631Z,97942.16
2023-12-05T20:32:30.078Z,97938.47
2023-12-05T20:34:59.340Z,97937.59
2023-12-05T20:37:28.494Z,97935.97
2023-12-05T20:39:59.839Z,97940.34
2023-12-05T20:42:29.855Z,97941.06
2023-12-05T20:44:59.372Z,97939.56
2023-12-05T20:47:28.663Z,97938.75
2023-12-05T20:49:58.268Z,97939.56
2023-12-05T20:52:27.418Z,97938.31
2023-12-05T20:54:56.531Z,97934.66
2023-12-05T20:57:28.229Z,97932.63
2023-12-05T20:59:57.527Z,97930.63
2023-12-05T21:02:26.691Z,97932.16
2023-12-05T21:04:55.834Z,97931.00
2023-12-05T21:07:25.783Z,97926.19
2023-12-05T21:09:56.000Z,97934.50
2023-12-05T21:12:26.531Z,97921.97
2023-12-05T21:14:55.635Z,97926.28
2023-12-05T21:17:25.448Z,97920.47
2023-12-05T21:19:55.500Z,97923.59
2023-12-05T21:22:24.631Z,97926.78
2023-12-05T21:24:54.455Z,97924.31
2023-12-05T21:27:23.778Z,97920.94
2023-12-05T21:29:54.687Z,97920.13
2023-12-05T21:32:23.866Z,97918.97
2023-12-05T21:34:53.153Z,97926.47
2023-12-05T21:37:22.617Z,97927.72
2023-12-05T21:39:51.992Z,97931.63
2023-12-05T21:42:21.168Z,97922.53
2023-12-05T21:44:50.315Z,97922.63
2023-12-05T21:47:21.324Z,97931.28
2023-12-05T21:49:50.645Z,97931.28
2023-12-05T21:52:19.845Z,97932.88
2023-12-05T21:54:49.620Z,97928.50
2023-12-05T21:57:19.043Z,97926.91
2023-12-05T21:59:48.414Z,97924.94
2023-12-05T22:02:17.549Z,97925.75
2023-12-05T22:04:48.089Z,97925.03
2023-12-05T22:07:17.441Z,97924.94
2023-12-05T22:09:46.595Z,97922.53
2023-12-05T22:12:16.283Z,97930.47
2023-12-05T22:14:45.419Z,97932.78
2023-12-05T22:17:14.623Z,97942.34
2023-12-05T22:19:43.794Z,97932.00
2023-12-05T22:22:14.373Z,97932.00
2023-12-05T22:24:44.197Z,97931.28
2023-12-05T22:27:13.401Z,97928.97
2023-12-05T22:29:46.685Z,97933.78
2023-12-05T22:32:16.584Z,97931.44
2023-12-05T22:34:45.834Z,97930.63
2023-12-05T22:37:16.470Z,97931.44
2023-12-05T22:39:45.656Z,97936.97
2023-12-05T22:42:14.818Z,97938.91
2023-12-05T22:44:44.039Z,97937.41
2023-12-05T22:47:13.212Z,97939.00
2023-12-05T22:49:42.356Z,97937.06
2023-12-05T22:52:11.614Z,97937.06
2023-12-05T22:54:42.167Z,97943.38
2023-12-05T22:57:11.365Z,97939.47
2023-12-05T22:59:40.570Z,97938.75
2023-12-05T23:02:10.596Z,97932.50
2023-12-05T23:04:39.887Z,97939.19
2023-12-05T23:07:09.010Z,97938.31
2023-12-05T23:09:38.409Z,97934.38
2023-12-05T23:12:09.970Z,97942.22
2023-12-05T23:14:39.165Z,97935.38
2023-12-05T23:17:08.351Z,97921.03
2023-12-05T23:19:37.568Z,97922.97
2023-12-05T23:22:06.725Z,97921.38
2023-12-05T23:24:35.891Z,97928.88
2023-12-05T23:27:05.452Z,97922.53
2023-12-05T23:29:35.999Z,97911.47
2023-12-05T23:32:06.635Z,97908.00
2023-12-05T23:34:35.832Z,97906.75
2023-12-05T23:37:05.472Z,97911.47
2023-12-05T23:39:34.669Z,97912.63
2023-12-05T23:42:03.830Z,97909.88
2023-12-05T23:44:32.945Z,97923.25
2023-12-05T23:47:03.441Z,97913.09
2023-12-05T23:49:32.774Z,97907.56
2023-12-05T23:52:02.035Z,97905.25
2023-12-05T23:54:31.915Z,97904.78
2023-12-05T23:57:01.149Z,97894.19
2023-12-05T23:59:30.302Z,97895.78
